Byrd, Ohio
Current Conditions -  °F | °C
As of 2:55 PM on Monday 24 Nov 2014 (Local Time) from KFGX Reporting Station
Broken Clouds Broken Clouds  
Wind Chill: 52°   Ceiling: 3000
Heat Index: 52°   Visibility: 10mi
Dew Point: 42°   Wind: 21mph
Humidity: 68%   Direction: 270°W
Pressure: 29.69"   Gusts: 32mph
Location:  38.8148°N, 83.7054°W
Report Text: KFGX 241955Z AUTO 27018G28KT 10SM BKN030 BKN035 11/05 A2969 RMK AO2 T01120054
Loading
Personal Weather Stations






























Interactive Weather Map New forecast layout! Learn more

10-Day Weather Forecast

Advertisements
Track Severe Weather on mobile